Time;durP1;ratioP1;P1;durP2;ratioP2;P2;SDS_P1;SDS_P2;PMS_P1;PMS_P2;Temp;Humidity;BMP_temperature;BMP_pressure;BME280_temperature;BME280_humidity;BME280_pressure;Samples;Min_cycle;Max_cycle;Signal;HPM_P1;HPM_P2
2023/10/27 00:01:08;;;;;;;17.47;11.40;;;11.50;1.00;;;;;;5067373;28;20557;-78
2023/10/27 00:03:34;;;;;;;16.47;11.77;;;11.40;1.00;;;;;;5063299;28;20750;-78
2023/10/27 00:06:00;;;;;;;14.90;10.30;;;11.40;1.00;;;;;;5067015;28;20694;-77
2023/10/27 00:08:25;;;;;;;16.00;10.40;;;11.40;1.00;;;;;;5065467;28;20196;-79
2023/10/27 00:10:52;;;;;;;16.90;9.50;;;11.40;1.00;;;;;;5070072;28;20835;-78
2023/10/27 00:13:17;;;;;;;14.70;8.77;;;11.40;1.00;;;;;;5052317;28;20205;-79
2023/10/27 00:15:43;;;;;;;18.40;9.13;;;11.30;1.00;;;;;;5072696;28;20463;-79
2023/10/27 00:18:08;;;;;;;15.63;8.27;;;11.40;1.00;;;;;;5056273;28;20558;-78
2023/10/27 00:20:34;;;;;;;17.10;7.60;;;11.40;1.00;;;;;;5073108;28;20189;-79
2023/10/27 00:22:59;;;;;;;14.70;8.17;;;11.30;1.00;;;;;;5073644;28;20173;-77
2023/10/27 00:25:25;;;;;;;14.53;7.13;;;11.30;1.00;;;;;;5072752;28;20197;-79
2023/10/27 00:27:51;;;;;;;10.33;6.20;;;11.30;1.00;;;;;;5072175;28;20217;-79
2023/10/27 00:30:17;;;;;;;14.00;6.47;;;11.30;1.00;;;;;;5071209;28;20195;-78
2023/10/27 00:32:42;;;;;;;15.40;7.03;;;11.40;1.00;;;;;;5071848;28;20193;-79
2023/10/27 00:35:08;;;;;;;12.77;6.30;;;11.40;1.00;;;;;;5071310;28;20574;-78
2023/10/27 00:37:35;;;;;;;13.97;7.17;;;11.30;1.00;;;;;;5072692;28;20479;-78
2023/10/27 00:40:01;;;;;;;13.90;5.70;;;11.40;1.00;;;;;;5054083;28;20527;-77
2023/10/27 00:42:27;;;;;;;16.57;6.00;;;11.40;1.00;;;;;;5070774;28;22410;-78
2023/10/27 00:44:52;;;;;;;11.23;5.83;;;11.50;1.00;;;;;;5073724;28;20483;-78
2023/10/27 00:47:18;;;;;;;16.87;6.20;;;11.60;1.00;;;;;;5056488;28;20211;-78
2023/10/27 00:49:44;;;;;;;15.77;5.90;;;11.60;1.00;;;;;;5073838;28;20209;-78
2023/10/27 00:52:12;;;;;;;13.03;5.20;;;11.60;1.00;;;;;;5054570;28;20194;-79
2023/10/27 00:54:38;;;;;;;14.43;6.47;;;11.70;1.00;;;;;;5071997;28;20816;-78
2023/10/27 00:57:04;;;;;;;14.40;5.60;;;11.70;1.00;;;;;;5057032;28;20521;-78
2023/10/27 00:59:32;;;;;;;10.03;5.33;;;11.70;1.00;;;;;;5055315;28;20447;-79
2023/10/27 01:01:58;;;;;;;16.90;5.33;;;11.70;1.00;;;;;;5072288;28;20435;-79
2023/10/27 01:04:25;;;;;;;15.40;6.33;;;11.70;1.00;;;;;;5057549;28;20522;-78
2023/10/27 01:06:52;;;;;;;16.37;5.70;;;11.60;1.00;;;;;;5052188;28;20455;-78
2023/10/27 01:09:17;;;;;;;15.70;6.33;;;11.50;1.00;;;;;;5072860;28;20518;-77
2023/10/27 01:11:44;;;;;;;10.87;5.97;;;11.40;1.00;;;;;;5072795;28;22465;-78
2023/10/27 01:14:10;;;;;;;17.83;5.90;;;11.40;1.00;;;;;;5069079;28;20226;-77
2023/10/27 01:16:35;;;;;;;12.33;4.80;;;11.40;1.00;;;;;;5072414;28;20491;-77
2023/10/27 01:19:01;;;;;;;15.73;6.03;;;11.40;1.00;;;;;;5071356;28;20209;-78
2023/10/27 01:21:26;;;;;;;9.40;5.20;;;11.30;1.00;;;;;;5072377;28;20190;-78
2023/10/27 01:23:52;;;;;;;13.93;5.77;;;11.30;1.00;;;;;;5059228;28;20681;-79
2023/10/27 01:26:17;;;;;;;11.40;6.00;;;11.20;1.00;;;;;;5071226;28;20200;-77
2023/10/27 01:28:43;;;;;;;14.90;4.80;;;11.10;1.00;;;;;;5070395;28;20188;-78
2023/10/27 01:31:08;;;;;;;16.97;6.10;;;11.10;1.00;;;;;;5070369;28;20209;-78
2023/10/27 01:33:34;;;;;;;13.17;6.30;;;11.10;1.00;;;;;;5070124;28;20217;-77
2023/10/27 01:36:00;;;;;;;12.03;5.73;;;11.10;1.00;;;;;;5068844;28;20206;-79
2023/10/27 01:38:25;;;;;;;17.10;7.03;;;11.10;1.00;;;;;;5069569;28;20246;-78
2023/10/27 01:40:51;;;;;;;12.13;5.63;;;11.20;1.00;;;;;;5071342;28;20176;-78
2023/10/27 01:43:17;;;;;;;14.87;5.73;;;11.20;1.00;;;;;;5070828;28;20435;-79
2023/10/27 01:45:42;;;;;;;13.50;5.63;;;11.20;1.00;;;;;;5070293;28;20262;-79
2023/10/27 01:48:08;;;;;;;15.00;5.03;;;11.20;1.00;;;;;;5046881;28;20555;-78
2023/10/27 01:50:33;;;;;;;11.37;4.60;;;11.30;1.00;;;;;;5070391;28;20258;-78
2023/10/27 01:52:59;;;;;;;14.10;5.03;;;11.40;1.00;;;;;;5072325;28;20189;-78
2023/10/27 01:55:24;;;;;;;7.97;4.93;;;11.40;1.00;;;;;;5072282;28;20209;-78
2023/10/27 01:57:50;;;;;;;12.97;5.40;;;11.40;1.00;;;;;;5072061;28;20213;-77
2023/10/27 02:00:15;;;;;;;13.83;5.43;;;11.30;1.00;;;;;;5072718;28;20185;-78
2023/10/27 02:02:41;;;;;;;20.23;5.33;;;11.30;1.00;;;;;;5071507;28;20188;-78
2023/10/27 02:05:08;;;;;;;13.97;5.00;;;11.30;1.00;;;;;;5064847;28;20214;-77
2023/10/27 02:07:33;;;;;;;14.10;5.07;;;11.40;1.00;;;;;;5072774;28;20182;-79
2023/10/27 02:10:01;;;;;;;12.43;5.53;;;11.40;1.00;;;;;;5051471;28;20964;-79
2023/10/27 02:12:27;;;;;;;13.47;5.67;;;11.40;1.00;;;;;;5072231;28;20183;-78
2023/10/27 02:14:53;;;;;;;12.90;4.83;;;11.40;1.00;;;;;;5071104;28;20443;-77
2023/10/27 02:17:18;;;;;;;12.30;5.20;;;11.30;1.00;;;;;;5053143;28;20228;-78
2023/10/27 02:19:44;;;;;;;13.50;4.80;;;11.30;1.00;;;;;;5071434;28;20181;-78
2023/10/27 02:22:10;;;;;;;17.37;5.03;;;11.20;1.00;;;;;;5051245;28;20246;-78
2023/10/27 02:24:37;;;;;;;22.00;5.10;;;11.20;1.00;;;;;;5067649;28;20435;-78
2023/10/27 02:27:03;;;;;;;12.70;5.43;;;11.20;1.00;;;;;;5069574;28;20204;-78
2023/10/27 02:29:28;;;;;;;14.77;5.03;;;11.30;1.00;;;;;;5071791;28;20431;-79
2023/10/27 02:31:54;;;;;;;12.20;4.93;;;11.30;1.00;;;;;;5070040;28;20553;-77
2023/10/27 02:34:19;;;;;;;18.67;5.00;;;11.30;1.00;;;;;;5067589;28;20190;-78
2023/10/27 02:36:45;;;;;;;10.13;4.20;;;11.20;1.00;;;;;;5068659;28;20572;-79
2023/10/27 02:39:11;;;;;;;17.23;5.90;;;11.20;1.00;;;;;;5070274;28;20209;-78
2023/10/27 02:41:36;;;;;;;17.37;6.73;;;11.20;1.00;;;;;;5072044;28;20170;-79
2023/10/27 02:44:03;;;;;;;17.00;5.57;;;11.20;1.00;;;;;;5071922;28;20178;-79
2023/10/27 02:46:29;;;;;;;16.37;5.47;;;11.20;1.00;;;;;;5071007;28;20200;-78
2023/10/27 02:48:54;;;;;;;16.20;5.80;;;11.10;1.00;;;;;;5069457;28;20526;-77
2023/10/27 02:51:21;;;;;;;12.90;6.43;;;11.10;1.00;;;;;;5070162;28;20554;-78
2023/10/27 02:53:47;;;;;;;13.27;4.13;;;11.10;1.00;;;;;;5069928;28;20675;-79
2023/10/27 02:56:13;;;;;;;11.73;5.97;;;11.10;1.00;;;;;;5064884;28;20516;-78
2023/10/27 02:58:38;;;;;;;11.40;4.67;;;11.10;1.00;;;;;;5070503;28;20482;-78
2023/10/27 03:01:11;;;;;;;11.40;4.97;;;11.10;1.00;;;;;;5052522;28;20980;-78
2023/10/27 03:03:36;;;;;;;21.23;4.53;;;11.10;1.00;;;;;;5070393;28;20267;-79
2023/10/27 03:06:03;;;;;;;13.43;4.87;;;11.10;1.00;;;;;;5070579;28;20601;-79
2023/10/27 03:08:31;;;;;;;18.77;4.73;;;11.20;1.00;;;;;;5051893;28;20303;-79
2023/10/27 03:10:57;;;;;;;15.47;5.40;;;11.20;1.00;;;;;;5070357;28;20455;-78
2023/10/27 03:13:22;;;;;;;15.13;4.40;;;11.10;1.00;;;;;;5068896;28;20465;-78
2023/10/27 03:15:48;;;;;;;15.30;4.50;;;11.20;1.00;;;;;;5052266;28;20201;-78
2023/10/27 03:18:13;;;;;;;11.60;4.67;;;11.20;1.00;;;;;;5071417;28;20266;-78
2023/10/27 03:20:39;;;;;;;14.10;5.40;;;11.10;1.00;;;;;;5071231;28;20189;-79
2023/10/27 03:23:04;;;;;;;11.13;5.27;;;11.10;1.00;;;;;;5070415;28;20679;-78
2023/10/27 03:25:30;;;;;;;9.60;4.50;;;11.10;1.00;;;;;;5049862;28;20216;-78
2023/10/27 03:27:55;;;;;;;12.53;5.50;;;11.10;1.00;;;;;;5071795;28;20188;-79
2023/10/27 03:30:22;;;;;;;15.53;5.33;;;11.00;1.00;;;;;;5075130;28;20185;-79
2023/10/27 03:32:47;;;;;;;10.43;4.97;;;11.10;1.00;;;;;;5057007;28;20264;-80
2023/10/27 03:35:14;;;;;;;10.30;5.00;;;11.10;1.00;;;;;;5074039;28;20888;-80
2023/10/27 03:37:39;;;;;;;12.00;4.37;;;11.10;1.00;;;;;;5057165;28;20984;-80
2023/10/27 03:40:06;;;;;;;14.10;4.40;;;11.10;1.00;;;;;;5074926;28;20434;-80
2023/10/27 03:42:31;;;;;;;9.33;4.30;;;11.10;1.00;;;;;;5076056;28;20185;-80
2023/10/27 03:44:57;;;;;;;12.63;4.40;;;11.20;1.00;;;;;;5076245;28;20432;-80
2023/10/27 03:47:22;;;;;;;11.40;4.30;;;11.20;1.00;;;;;;5075837;28;20294;-80
2023/10/27 03:49:48;;;;;;;21.50;5.00;;;11.20;1.00;;;;;;5075372;28;20214;-80
2023/10/27 03:52:13;;;;;;;13.73;4.13;;;11.20;1.00;;;;;;5081427;28;20185;-80
2023/10/27 03:54:39;;;;;;;15.17;5.50;;;11.20;1.00;;;;;;5063108;28;20193;-80
2023/10/27 03:57:06;;;;;;;11.10;4.07;;;11.10;1.00;;;;;;5062697;28;20579;-80
2023/10/27 03:59:31;;;;;;;13.13;4.63;;;11.10;1.00;;;;;;5081006;28;20182;-79
2023/10/27 04:01:57;;;;;;;11.20;5.03;;;11.10;1.00;;;;;;5080410;28;20432;-80
2023/10/27 04:04:22;;;;;;;11.77;4.70;;;11.10;1.00;;;;;;5078836;28;20169;-80
2023/10/27 04:06:48;;;;;;;13.13;4.90;;;11.10;1.00;;;;;;5079770;28;20205;-79
2023/10/27 04:09:13;;;;;;;9.53;4.03;;;11.10;1.00;;;;;;5080555;28;20181;-80
2023/10/27 04:11:39;;;;;;;11.83;4.27;;;11.10;1.00;;;;;;5079506;28;20193;-80
2023/10/27 04:14:05;;;;;;;14.00;5.10;;;11.10;1.00;;;;;;5080336;28;20223;-80
2023/10/27 04:16:31;;;;;;;16.50;6.20;;;11.10;1.00;;;;;;5078137;28;20213;-80
2023/10/27 04:18:57;;;;;;;18.33;5.93;;;11.00;1.00;;;;;;5079271;28;20222;-80
2023/10/27 04:21:23;;;;;;;13.73;5.20;;;11.00;1.00;;;;;;5076187;28;20443;-80
2023/10/27 04:23:48;;;;;;;10.93;5.27;;;11.00;1.00;;;;;;5080351;28;20478;-80
2023/10/27 04:26:15;;;;;;;15.90;5.70;;;11.00;1.00;;;;;;5078977;28;20193;-80
2023/10/27 04:28:41;;;;;;;15.97;4.37;;;11.00;1.00;;;;;;5058315;28;20667;-80
2023/10/27 04:31:07;;;;;;;14.23;5.00;;;11.00;1.00;;;;;;5060722;28;20439;-80
2023/10/27 04:33:36;;;;;;;9.83;4.67;;;11.00;1.00;;;;;;5079089;28;20502;-80
2023/10/27 04:36:02;;;;;;;12.90;4.60;;;11.00;1.00;;;;;;5072126;28;20209;-80
2023/10/27 04:38:27;;;;;;;11.20;4.57;;;11.00;1.00;;;;;;5078216;28;20888;-80
2023/10/27 04:40:53;;;;;;;19.50;6.27;;;10.90;1.00;;;;;;5079064;28;20189;-80
2023/10/27 04:43:21;;;;;;;9.00;5.00;;;10.90;1.00;;;;;;5060275;28;20185;-80
2023/10/27 04:45:47;;;;;;;10.93;4.60;;;10.90;3.60;;;;;;5076022;28;20459;-80
2023/10/27 04:48:13;;;;;;;16.80;4.60;;;10.90;5.80;;;;;;5078586;28;20842;-80
2023/10/27 04:50:38;;;;;;;12.27;4.50;;;10.90;8.70;;;;;;5079255;28;20446;-80
2023/10/27 04:53:04;;;;;;;6.23;3.90;;;10.90;12.40;;;;;;5060167;28;20603;-80
2023/10/27 04:55:29;;;;;;;8.13;4.20;;;10.90;14.40;;;;;;5077064;28;20213;-80
2023/10/27 04:57:55;;;;;;;12.57;4.50;;;10.90;15.60;;;;;;5078833;28;20615;-80
2023/10/27 05:00:20;;;;;;;13.03;5.13;;;10.90;17.30;;;;;;5077149;28;20197;-80
2023/10/27 05:02:46;;;;;;;11.50;5.00;;;11.00;18.10;;;;;;5079422;28;20245;-80
2023/10/27 05:05:12;;;;;;;14.63;4.33;;;11.00;19.30;;;;;;5060175;28;20181;-80
2023/10/27 05:07:37;;;;;;;11.30;5.47;;;11.00;17.40;;;;;;5076246;28;20738;-79
2023/10/27 05:10:07;;;;;;;16.80;4.70;;;11.10;16.60;;;;;;5078855;28;20177;-80
2023/10/27 05:12:33;;;;;;;10.70;4.50;;;11.10;14.10;;;;;;5077347;28;20189;-80
2023/10/27 05:14:58;;;;;;;13.43;4.97;;;11.10;13.00;;;;;;5078056;28;20439;-80
2023/10/27 05:17:24;;;;;;;14.50;4.00;;;11.10;13.10;;;;;;5077094;28;20274;-80
2023/10/27 05:19:49;;;;;;;9.90;4.77;;;11.10;11.00;;;;;;5078923;28;20197;-80
2023/10/27 05:22:15;;;;;;;13.50;4.50;;;11.10;12.20;;;;;;5076569;28;20209;-80
2023/10/27 05:24:41;;;;;;;16.23;5.47;;;11.20;10.40;;;;;;5060361;28;20264;-80
2023/10/27 05:27:07;;;;;;;17.33;4.57;;;11.10;10.80;;;;;;5058008;28;20246;-80
2023/10/27 05:29:32;;;;;;;12.20;4.50;;;11.10;13.50;;;;;;5055583;28;20529;-80
2023/10/27 05:31:58;;;;;;;10.07;4.50;;;11.20;12.80;;;;;;5076009;28;20243;-80
2023/10/27 05:34:23;;;;;;;11.03;3.83;;;11.20;15.20;;;;;;5073225;28;20184;-79
2023/10/27 05:36:49;;;;;;;11.20;4.63;;;11.20;14.20;;;;;;5055937;28;20733;-80
2023/10/27 05:39:17;;;;;;;17.80;5.20;;;11.20;16.10;;;;;;5072402;28;20588;-79
2023/10/27 05:41:45;;;;;;;9.60;4.10;;;11.20;17.20;;;;;;5068585;28;20231;-79
2023/10/27 05:44:11;;;;;;;12.37;4.53;;;11.20;17.30;;;;;;5076260;28;20514;-79
2023/10/27 05:46:36;;;;;;;13.90;4.90;;;11.20;21.90;;;;;;5057155;28;20528;-79
2023/10/27 05:49:04;;;;;;;11.77;4.53;;;11.10;25.00;;;;;;5074011;28;20256;-79
2023/10/27 05:51:29;;;;;;;12.20;4.90;;;11.10;29.90;;;;;;5075928;28;20181;-79
2023/10/27 05:53:55;;;;;;;8.87;4.43;;;11.10;35.10;;;;;;5079146;28;20496;-81
2023/10/27 05:56:21;;;;;;;9.70;4.37;;;11.20;38.40;;;;;;5051042;28;20690;-81
2023/10/27 05:58:47;;;;;;;17.17;4.97;;;11.10;38.30;;;;;;5078994;28;21080;-80
2023/10/27 06:01:12;;;;;;;9.20;4.33;;;11.20;45.10;;;;;;5060274;28;20176;-80
2023/10/27 06:03:38;;;;;;;8.43;5.60;;;11.20;50.20;;;;;;5077244;28;20446;-81
2023/10/27 06:06:04;;;;;;;12.10;4.80;;;11.10;54.30;;;;;;5077942;28;20201;-80
2023/10/27 06:08:29;;;;;;;11.77;5.00;;;11.20;63.20;;;;;;5078206;28;20545;-80
2023/10/27 06:10:55;;;;;;;12.40;5.57;;;11.30;65.20;;;;;;5078308;28;20465;-80
2023/10/27 06:13:20;;;;;;;16.20;6.23;;;11.30;68.00;;;;;;5077153;28;20181;-80
2023/10/27 06:15:46;;;;;;;12.00;6.17;;;11.30;70.00;;;;;;5077981;28;20202;-81
2023/10/27 06:18:12;;;;;;;11.43;6.03;;;11.20;69.40;;;;;;5058667;28;20204;-81
2023/10/27 06:20:38;;;;;;;13.20;4.60;;;11.30;81.30;;;;;;5074763;28;20177;-81
2023/10/27 06:23:04;;;;;;;11.83;5.30;;;11.30;85.20;;;;;;5075124;28;20519;-80
2023/10/27 06:25:29;;;;;;;10.23;5.33;;;11.40;86.10;;;;;;5077352;28;20197;-80
2023/10/27 06:27:55;;;;;;;6.43;3.87;;;11.40;90.00;;;;;;5075251;28;20406;-81
2023/10/27 06:30:21;;;;;;;6.60;4.00;;;11.50;90.10;;;;;;5074535;28;20178;-80
2023/10/27 06:32:47;;;;;;;12.73;3.97;;;11.50;89.60;;;;;;5075979;28;20185;-80
2023/10/27 06:35:13;;;;;;;10.63;4.27;;;11.50;88.40;;;;;;5074636;28;20949;-80
2023/10/27 06:37:39;;;;;;;8.30;3.80;;;11.60;87.60;;;;;;5073696;28;20467;-80
2023/10/27 06:40:05;;;;;;;11.60;3.80;;;11.60;86.90;;;;;;5075014;28;20716;-80
2023/10/27 06:42:31;;;;;;;8.30;3.30;;;11.60;85.00;;;;;;5075155;28;20189;-80
2023/10/27 06:44:56;;;;;;;4.80;2.87;;;11.60;84.10;;;;;;5075210;28;20489;-80
2023/10/27 06:47:22;;;;;;;12.73;3.80;;;11.70;84.20;;;;;;5076472;28;20205;-80
2023/10/27 06:49:47;;;;;;;7.47;4.00;;;11.70;84.20;;;;;;5075799;28;20212;-80
2023/10/27 06:52:13;;;;;;;7.87;3.23;;;11.70;85.90;;;;;;5056545;28;20185;-79
2023/10/27 06:54:40;;;;;;;7.17;3.37;;;11.70;88.40;;;;;;5066219;28;20234;-81
2023/10/27 06:57:06;;;;;;;7.90;3.57;;;11.70;88.10;;;;;;5075116;28;20447;-81
2023/10/27 06:59:32;;;;;;;9.17;4.47;;;11.70;88.70;;;;;;5076875;28;20436;-80
2023/10/27 07:01:58;;;;;;;8.40;4.80;;;11.70;89.20;;;;;;5078339;28;20518;-81
2023/10/27 07:04:24;;;;;;;5.03;4.47;;;11.70;89.40;;;;;;5054698;28;20647;-81
2023/10/27 07:06:49;;;;;;;7.40;5.00;;;11.70;87.60;;;;;;5079110;28;20262;-81
2023/10/27 07:09:15;;;;;;;7.40;4.77;;;11.70;83.50;;;;;;5077616;28;20764;-81
2023/10/27 07:11:40;;;;;;;8.57;5.33;;;11.80;83.70;;;;;;5076905;28;20267;-81
2023/10/27 07:14:06;;;;;;;6.77;5.30;;;11.80;85.10;;;;;;5058570;28;20211;-81
2023/10/27 07:16:31;;;;;;;10.83;6.70;;;11.80;81.50;;;;;;5076069;28;20560;-81
2023/10/27 07:18:57;;;;;;;8.10;6.07;;;11.80;81.70;;;;;;5074185;28;20205;-81
2023/10/27 07:21:22;;;;;;;16.13;6.60;;;11.80;79.30;;;;;;5079055;28;20575;-81
2023/10/27 07:23:48;;;;;;;13.40;6.43;;;11.80;77.70;;;;;;5078909;28;20243;-80
2023/10/27 07:26:15;;;;;;;8.83;6.47;;;11.90;77.20;;;;;;5055620;28;20213;-81
2023/10/27 07:28:41;;;;;;;10.73;7.20;;;11.90;76.90;;;;;;5059824;28;20189;-80
2023/10/27 07:31:08;;;;;;;13.70;8.07;;;11.90;72.60;;;;;;5040618;28;20451;-79
2023/10/27 07:33:35;;;;;;;16.13;8.17;;;11.90;73.70;;;;;;5050496;28;20431;-80
2023/10/27 07:36:02;;;;;;;11.57;7.87;;;11.90;74.00;;;;;;5074440;28;20486;-80
2023/10/27 07:38:28;;;;;;;17.03;9.53;;;11.90;74.20;;;;;;5076109;28;20475;-80
2023/10/27 07:40:58;;;;;;;16.20;9.83;;;12.00;71.20;;;;;;5075203;28;20447;-80
2023/10/27 07:43:23;;;;;;;14.30;8.67;;;12.00;64.60;;;;;;5072026;28;20443;-80
2023/10/27 07:45:49;;;;;;;12.70;9.27;;;12.00;64.90;;;;;;5074022;28;20456;-80
2023/10/27 07:48:15;;;;;;;11.00;8.40;;;12.00;62.40;;;;;;5076319;28;20459;-80
2023/10/27 07:50:40;;;;;;;17.10;8.60;;;12.00;61.00;;;;;;5075951;28;20177;-80
2023/10/27 07:53:06;;;;;;;17.17;9.20;;;12.00;59.60;;;;;;5076683;28;20189;-80
2023/10/27 07:55:32;;;;;;;16.90;8.73;;;12.00;59.00;;;;;;5077006;28;20452;-81
2023/10/27 07:57:58;;;;;;;12.97;9.40;;;12.10;58.00;;;;;;5073566;28;20212;-81
2023/10/27 08:00:23;;;;;;;12.77;8.43;;;12.10;53.10;;;;;;5074383;28;20181;-80
2023/10/27 08:02:52;;;;;;;16.03;9.00;;;12.10;53.30;;;;;;5080435;28;20181;-80
2023/10/27 08:05:18;;;;;;;15.90;10.70;;;12.10;50.60;;;;;;5055585;28;20185;-80
2023/10/27 08:07:44;;;;;;;19.30;10.90;;;12.20;52.40;;;;;;5060285;28;20443;-81
2023/10/27 08:10:10;;;;;;;20.90;11.50;;;12.20;54.20;;;;;;5077770;28;20427;-80
2023/10/27 08:12:37;;;;;;;18.53;11.10;;;12.20;51.50;;;;;;5074921;28;20458;-80
2023/10/27 08:15:06;;;;;;;23.00;12.77;;;12.30;50.40;;;;;;5075323;28;21778;-80
2023/10/27 08:17:36;;;;;;;19.53;11.93;;;12.20;46.80;;;;;;5057006;28;20463;-80
2023/10/27 08:20:02;;;;;;;21.60;12.53;;;12.20;44.70;;;;;;5072621;28;20438;-80
2023/10/27 08:22:28;;;;;;;20.50;12.10;;;12.20;43.20;;;;;;5055892;28;20436;-80
2023/10/27 08:24:53;;;;;;;20.57;13.00;;;12.20;42.00;;;;;;5077041;28;20928;-79
2023/10/27 08:27:19;;;;;;;19.30;13.13;;;12.20;44.40;;;;;;5077277;28;20615;-81
2023/10/27 08:29:44;;;;;;;18.10;11.83;;;12.20;40.70;;;;;;5059967;28;20736;-81
2023/10/27 08:32:11;;;;;;;20.57;11.63;;;12.20;40.80;;;;;;5077049;28;20538;-80
2023/10/27 08:34:37;;;;;;;15.60;11.53;;;12.30;39.70;;;;;;5071476;28;20186;-80
2023/10/27 08:37:03;;;;;;;17.00;11.90;;;12.30;36.30;;;;;;5078490;28;20470;-80
2023/10/27 08:39:28;;;;;;;15.43;10.50;;;12.30;37.40;;;;;;5080628;28;20503;-81
2023/10/27 08:41:54;;;;;;;15.87;10.93;;;12.30;36.20;;;;;;5081257;28;20184;-79
2023/10/27 08:44:21;;;;;;;15.47;11.13;;;12.30;35.70;;;;;;5077361;28;20834;-80
2023/10/27 08:46:47;;;;;;;18.10;11.13;;;12.40;34.30;;;;;;5078875;28;20207;-80
2023/10/27 08:49:13;;;;;;;16.63;10.50;;;12.40;33.20;;;;;;5080105;28;20482;-80
2023/10/27 08:51:39;;;;;;;13.83;10.27;;;12.50;30.60;;;;;;5077918;28;20463;-80
2023/10/27 08:54:05;;;;;;;14.30;10.00;;;12.50;23.50;;;;;;5080829;28;20260;-79
2023/10/27 08:56:31;;;;;;;18.13;10.57;;;12.50;21.90;;;;;;5080006;28;20463;-80
2023/10/27 08:58:58;;;;;;;17.70;10.97;;;12.50;23.40;;;;;;5079398;28;21275;-80
2023/10/27 09:01:25;;;;;;;13.60;9.90;;;12.60;25.80;;;;;;5074992;28;20182;-80
2023/10/27 09:04:10;;;;;;;19.50;9.67;;;12.70;23.00;;;;;;5071493;28;20461;-79
2023/10/27 09:06:37;;;;;;;17.03;9.93;;;12.80;12.90;;;;;;5076815;28;20466;-80
2023/10/27 09:09:05;;;;;;;14.13;9.50;;;12.90;9.90;;;;;;5079286;28;20443;-80
2023/10/27 09:11:58;;;;;;;12.57;8.67;;;12.90;1.00;;;;;;5081666;28;20451;-81
2023/10/27 09:14:26;;;;;;;15.90;10.30;;;13.00;1.00;;;;;;5062310;28;20509;-80
2023/10/27 09:17:05;;;;;;;16.83;9.50;;;13.00;1.00;;;;;;5078383;28;20459;-80
2023/10/27 09:19:32;;;;;;;12.57;9.50;;;13.10;1.00;;;;;;5078383;28;20875;-79
2023/10/27 09:21:58;;;;;;;18.90;10.53;;;13.10;1.00;;;;;;5079764;28;20861;-79
2023/10/27 09:24:28;;;;;;;16.27;9.50;;;13.20;1.00;;;;;;5077395;28;20432;-80
2023/10/27 09:26:59;;;;;;;13.80;10.07;;;13.20;1.00;;;;;;5080668;28;20458;-80
2023/10/27 09:29:26;;;;;;;15.27;10.87;;;13.30;1.00;;;;;;5079779;28;20443;-79
2023/10/27 09:31:52;;;;;;;19.03;11.43;;;13.40;1.00;;;;;;5080104;28;20531;-79
2023/10/27 09:34:25;;;;;;;18.67;11.90;;;13.50;1.00;;;;;;5079855;28;20463;-80
2023/10/27 09:36:58;;;;;;;15.57;11.60;;;13.60;1.00;;;;;;5072102;28;20451;-80
2023/10/27 09:39:25;;;;;;;20.87;11.47;;;13.90;1.00;;;;;;5078094;28;20474;-80
2023/10/27 09:42:08;;;;;;;17.43;11.27;;;14.00;1.00;;;;;;5079835;28;20463;-80
2023/10/27 09:45:06;;;;;;;20.70;13.20;;;14.10;1.00;;;;;;5078260;28;20437;-79
2023/10/27 09:47:41;;;;;;;17.00;11.93;;;14.40;1.00;;;;;;5049201;28;20440;-79
2023/10/27 09:50:07;;;;;;;22.80;11.33;;;14.60;1.00;;;;;;5077879;28;20513;-80
2023/10/27 09:52:34;;;;;;;13.93;10.83;;;14.70;1.00;;;;;;5077812;28;20467;-80
2023/10/27 09:55:01;;;;;;;22.33;12.17;;;14.70;1.00;;;;;;5077733;28;20489;-80
2023/10/27 09:57:28;;;;;;;18.70;11.30;;;14.70;1.00;;;;;;5080207;28;20467;-80
2023/10/27 09:59:55;;;;;;;15.20;11.60;;;14.70;1.00;;;;;;5081063;28;20880;-80
2023/10/27 10:02:25;;;;;;;23.13;12.67;;;14.60;1.00;;;;;;5077692;28;20458;-80
2023/10/27 10:04:50;;;;;;;19.50;11.77;;;14.50;1.00;;;;;;5081091;28;20432;-80
2023/10/27 10:07:35;;;;;;;17.13;10.43;;;14.50;1.00;;;;;;5063525;28;20534;-80
2023/10/27 10:10:19;;;;;;;16.60;10.40;;;14.40;1.00;;;;;;5079441;28;20185;-79
2023/10/27 10:13:08;;;;;;;19.30;11.07;;;14.20;1.00;;;;;;5072339;28;20462;-80
2023/10/27 10:15:38;;;;;;;17.87;10.87;;;14.20;1.00;;;;;;5073947;28;20461;-80
2023/10/27 10:18:08;;;;;;;20.33;11.07;;;14.10;1.00;;;;;;5078057;28;20498;-80
2023/10/27 10:20:49;;;;;;;18.27;11.67;;;14.00;1.00;;;;;;5053548;28;20440;-79
2023/10/27 10:23:15;;;;;;;19.23;11.87;;;14.00;1.00;;;;;;5056571;28;21159;-78
2023/10/27 10:25:56;;;;;;;19.63;11.30;;;14.00;1.00;;;;;;5060987;28;20458;-79
2023/10/27 10:28:22;;;;;;;20.80;12.63;;;14.00;1.00;;;;;;5077481;28;20804;-81
2023/10/27 10:31:09;;;;;;;18.90;12.47;;;14.10;1.00;;;;;;5077298;28;20435;-79
2023/10/27 10:33:40;;;;;;;21.30;11.93;;;14.10;1.00;;;;;;5069532;28;20465;-80
2023/10/27 10:36:15;;;;;;;17.90;11.57;;;14.10;1.00;;;;;;5079972;28;20488;-80
2023/10/27 10:38:45;;;;;;;22.40;11.20;;;14.20;1.00;;;;;;5075698;28;20482;-80
2023/10/27 10:41:11;;;;;;;19.13;12.20;;;14.30;1.00;;;;;;5078132;28;20920;-79
2023/10/27 10:43:36;;;;;;;12.67;9.60;;;14.30;1.00;;;;;;5078262;28;20440;-80
2023/10/27 10:46:28;;;;;;;17.90;9.50;;;14.30;1.00;;;;;;5078593;28;20231;-80
2023/10/27 10:48:54;;;;;;;14.40;9.20;;;14.40;1.00;;;;;;5070677;28;20715;-79
2023/10/27 10:51:36;;;;;;;12.03;9.23;;;14.60;1.00;;;;;;5077842;28;20465;-80
2023/10/27 10:54:02;;;;;;;13.87;8.30;;;14.80;1.00;;;;;;5075547;28;20185;-79
2023/10/27 10:56:28;;;;;;;16.80;7.43;;;15.00;1.00;;;;;;5076778;28;20467;-79
2023/10/27 10:58:54;;;;;;;16.07;7.80;;;15.20;99.90;;;;;;5077235;28;20516;-80
2023/10/27 11:01:21;;;;;;;9.90;6.10;;;15.50;99.90;;;;;;5077635;28;20684;-80
2023/10/27 11:03:48;;;;;;;11.43;5.97;;;15.90;62.60;;;;;;5074563;28;21109;-79
2023/10/27 11:06:13;;;;;;;11.37;5.83;;;16.20;1.00;;;;;;5057999;28;20475;-80
2023/10/27 11:08:39;;;;;;;11.10;6.13;;;16.60;29.80;;;;;;5077892;28;20434;-80
2023/10/27 11:11:16;;;;;;;7.97;5.73;;;16.90;99.90;;;;;;5059060;28;20198;-80
2023/10/27 11:13:57;;;;;;;13.50;6.97;;;17.20;1.00;;;;;;5077021;28;20485;-80
2023/10/27 11:16:24;;;;;;;7.60;6.03;;;17.40;1.00;;;;;;5076055;28;20451;-80
2023/10/27 11:18:57;;;;;;;9.63;4.93;;;17.60;1.00;;;;;;5054933;28;20494;-80
2023/10/27 11:21:29;;;;;;;11.17;6.27;;;17.70;99.90;;;;;;5062292;28;20471;-79
2023/10/27 11:23:54;;;;;;;11.67;5.10;;;17.80;99.90;;;;;;5058494;28;20453;-79
2023/10/27 11:26:25;;;;;;;11.63;5.30;;;17.90;99.90;;;;;;5072202;28;20447;-80
2023/10/27 11:28:53;;;;;;;10.67;5.43;;;17.90;99.90;;;;;;5075528;28;20181;-80
2023/10/27 11:31:22;;;;;;;10.63;6.40;;;17.70;1.00;;;;;;5076629;28;20886;-80
2023/10/27 11:34:04;;;;;;;14.53;5.70;;;17.50;1.00;;;;;;5077335;28;20437;-80
2023/10/27 11:36:34;;;;;;;11.40;5.57;;;17.20;99.90;;;;;;5074444;28;22275;-80
2023/10/27 11:39:19;;;;;;;11.00;5.53;;;17.00;99.90;;;;;;5074768;28;20562;-79
2023/10/27 11:41:55;;;;;;;11.83;5.87;;;16.60;1.00;;;;;;5069856;28;20459;-80
2023/10/27 11:44:21;;;;;;;11.10;5.77;;;16.20;99.90;;;;;;5046087;28;20524;-79
2023/10/27 11:46:53;;;;;;;11.40;6.10;;;15.90;1.00;;;;;;5075868;28;21009;-80
2023/10/27 11:49:20;;;;;;;8.00;4.03;;;15.50;1.00;;;;;;5076324;28;20830;-80
2023/10/27 11:51:46;;;;;;;7.10;3.20;;;15.20;1.00;;;;;;5047313;28;20474;-79
2023/10/27 11:54:12;;;;;;;6.63;3.07;;;14.90;1.00;;;;;;5048572;28;20478;-79
2023/10/27 11:56:38;;;;;;;9.63;2.80;;;14.60;23.80;;;;;;5054880;28;20447;-80
2023/10/27 11:59:04;;;;;;;3.90;1.93;;;14.40;99.90;;;;;;5054114;28;20474;-79
2023/10/27 12:01:30;;;;;;;5.20;3.10;;;14.30;99.90;;;;;;5071302;28;20929;-80
2023/10/27 12:03:56;;;;;;;6.53;3.43;;;14.30;99.90;;;;;;5071780;28;20561;-79
2023/10/27 12:06:22;;;;;;;11.23;4.63;;;14.20;99.90;;;;;;5073984;28;20451;-80
2023/10/27 12:08:48;;;;;;;9.83;4.80;;;14.20;1.00;;;;;;5075936;28;20208;-80
2023/10/27 12:11:17;;;;;;;7.77;4.43;;;14.30;1.00;;;;;;5079026;28;20479;-80
2023/10/27 12:13:46;;;;;;;8.80;4.50;;;14.50;1.00;;;;;;5049579;28;20431;-79
2023/10/27 12:16:12;;;;;;;10.80;4.50;;;14.80;1.00;;;;;;5079030;28;20513;-79
2023/10/27 12:18:38;;;;;;;8.03;4.10;;;15.20;99.90;;;;;;5080509;28;20979;-80
2023/10/27 12:21:04;;;;;;;8.93;3.80;;;15.50;99.90;;;;;;5078890;28;20439;-80
2023/10/27 12:23:30;;;;;;;9.23;4.13;;;15.60;29.60;;;;;;5075321;28;20177;-80
2023/10/27 12:25:59;;;;;;;9.40;3.73;;;15.60;1.00;;;;;;5056056;28;20212;-80
2023/10/27 12:28:27;;;;;;;8.90;4.27;;;15.60;1.00;;;;;;5077670;28;20435;-80
2023/10/27 12:30:54;;;;;;;8.50;3.20;;;15.50;1.00;;;;;;5060394;28;20439;-80
2023/10/27 12:33:19;;;;;;;7.90;4.10;;;15.50;1.00;;;;;;5068919;28;20961;-79
2023/10/27 12:35:47;;;;;;;9.03;3.37;;;15.50;1.00;;;;;;5068576;28;20494;-80
2023/10/27 12:38:13;;;;;;;10.17;3.97;;;15.40;1.00;;;;;;5058735;28;20881;-79
2023/10/27 12:40:38;;;;;;;7.17;3.27;;;15.40;99.90;;;;;;5074895;28;20447;-79
2023/10/27 12:43:04;;;;;;;5.90;2.93;;;15.20;1.00;;;;;;5078759;28;20173;-80